sensor_id;sensor_type;location;lat;lon;timestamp;pressure;altitude;pressure_sealevel;temperature;humidity
36354;BME280;22383;51.114;13.666;2023-02-21T00:02:38;68032.94;;;7.67;100.00
36354;BME280;22383;51.114;13.666;2023-02-21T00:05:24;68033.31;;;7.65;100.00
36354;BME280;22383;51.114;13.666;2023-02-21T00:08:10;68032.16;;;7.64;100.00
36354;BME280;22383;51.114;13.666;2023-02-21T00:10:57;68025.97;;;7.58;100.00
36354;BME280;22383;51.114;13.666;2023-02-21T00:13:43;68030.28;;;7.60;100.00
36354;BME280;22383;51.114;13.666;2023-02-21T00:16:29;68028.22;;;7.61;100.00
36354;BME280;22383;51.114;13.666;2023-02-21T00:19:15;68024.84;;;7.57;100.00
36354;BME280;22383;51.114;13.666;2023-02-21T00:22:00;68014.47;;;7.53;100.00
36354;BME280;22383;51.114;13.666;2023-02-21T00:24:48;68014.63;;;7.48;100.00
36354;BME280;22383;51.114;13.666;2023-02-21T00:27:34;68020.13;;;7.51;100.00
36354;BME280;22383;51.114;13.666;2023-02-21T00:30:20;68018.59;;;7.52;100.00
36354;BME280;22383;51.114;13.666;2023-02-21T00:33:06;68011.81;;;7.46;100.00
36354;BME280;22383;51.114;13.666;2023-02-21T00:35:52;68014.47;;;7.46;100.00
36354;BME280;22383;51.114;13.666;2023-02-21T00:38:42;68013.31;;;7.45;100.00
36354;BME280;22383;51.114;13.666;2023-02-21T00:41:29;68013.31;;;7.45;100.00
36354;BME280;22383;51.114;13.666;2023-02-21T00:44:15;68012.38;;;7.46;100.00
36354;BME280;22383;51.114;13.666;2023-02-21T00:47:01;68014.63;;;7.48;100.00
36354;BME280;22383;51.114;13.666;2023-02-21T00:49:47;68008.97;;;7.43;100.00
36354;BME280;22383;51.114;13.666;2023-02-21T00:52:32;68014.09;;;7.48;100.00
36354;BME280;22383;51.114;13.666;2023-02-21T00:55:18;68016.72;;;7.48;100.00
36354;BME280;22383;51.114;13.666;2023-02-21T00:58:04;68019.56;;;7.50;100.00
36354;BME280;22383;51.114;13.666;2023-02-21T01:00:50;68016.16;;;7.47;100.00
36354;BME280;22383;51.114;13.666;2023-02-21T01:03:36;68013.91;;;7.45;100.00
36354;BME280;22383;51.114;13.666;2023-02-21T01:06:22;68014.09;;;7.48;100.00
36354;BME280;22383;51.114;13.666;2023-02-21T01:09:07;68018.03;;;7.51;100.00
36354;BME280;22383;51.114;13.666;2023-02-21T01:11:53;68014.84;;;7.51;100.00
36354;BME280;22383;51.114;13.666;2023-02-21T01:14:40;68023.50;;;7.54;100.00
36354;BME280;22383;51.114;13.666;2023-02-21T01:17:26;68015.22;;;7.49;100.00
36354;BME280;22383;51.114;13.666;2023-02-21T01:20:12;68022.38;;;7.53;100.00
36354;BME280;22383;51.114;13.666;2023-02-21T01:22:58;68016.34;;;7.50;100.00
36354;BME280;22383;51.114;13.666;2023-02-21T01:25:44;68023.31;;;7.51;100.00
36354;BME280;22383;51.114;13.666;2023-02-21T01:28:30;68016.34;;;7.50;100.00
36354;BME280;22383;51.114;13.666;2023-02-21T01:31:17;68023.50;;;7.54;100.00
36354;BME280;22383;51.114;13.666;2023-02-21T01:34:03;68018.97;;;7.50;100.00
36354;BME280;22383;51.114;13.666;2023-02-21T01:36:52;68024.06;;;7.54;100.00
36354;BME280;22383;51.114;13.666;2023-02-21T01:39:38;68023.13;;;7.56;100.00
36354;BME280;22383;51.114;13.666;2023-02-21T01:42:23;68024.25;;;7.57;100.00
36354;BME280;22383;51.114;13.666;2023-02-21T01:48:18;68031.81;;;7.59;100.00
36354;BME280;22383;51.114;13.666;2023-02-21T01:51:07;68025.97;;;7.58;100.00
36354;BME280;22383;51.114;13.666;2023-02-21T01:53:55;68023.50;;;7.54;100.00
36354;BME280;22383;51.114;13.666;2023-02-21T01:56:48;68021.81;;;7.52;100.00
36354;BME280;22383;51.114;13.666;2023-02-21T01:59:34;68022.00;;;7.55;100.00
36354;BME280;22383;51.114;13.666;2023-02-21T02:02:29;68025.97;;;7.58;100.00
36354;BME280;22383;51.114;13.666;2023-02-21T02:05:16;68034.81;;;7.64;100.00
36354;BME280;22383;51.114;13.666;2023-02-21T02:08:03;68030.28;;;7.60;100.00
36354;BME280;22383;51.114;13.666;2023-02-21T02:10:57;68032.16;;;7.64;100.00
36354;BME280;22383;51.114;13.666;2023-02-21T02:13:53;68023.31;;;7.58;100.00
36354;BME280;22383;51.114;13.666;2023-02-21T02:16:32;68033.88;;;7.66;100.00
36354;BME280;22383;51.114;13.666;2023-02-21T02:19:42;68042.16;;;7.71;100.00
36354;BME280;22383;51.114;13.666;2023-02-21T02:36:09;68041.78;;;7.73;100.00
36354;BME280;22383;51.114;13.666;2023-02-21T02:38:51;68037.47;;;7.71;100.00
36354;BME280;22383;51.114;13.666;2023-02-21T02:41:56;68045.00;;;7.73;100.00
36354;BME280;22383;51.114;13.666;2023-02-21T02:44:33;68044.78;;;7.71;100.00
36354;BME280;22383;51.114;13.666;2023-02-21T02:47:06;68041.22;;;7.72;100.00
36354;BME280;22383;51.114;13.666;2023-02-21T02:49:37;68038.03;;;7.72;100.00
36354;BME280;22383;51.114;13.666;2023-02-21T02:52:10;68038.59;;;7.72;100.00
36354;BME280;22383;51.114;13.666;2023-02-21T02:54:43;68036.91;;;7.71;100.00
36354;BME280;22383;51.114;13.666;2023-02-21T02:57:16;68041.78;;;7.73;100.00
36354;BME280;22383;51.114;13.666;2023-02-21T02:59:45;68045.56;;;7.74;100.00
36354;BME280;22383;51.114;13.666;2023-02-21T03:05:13;68036.13;;;7.68;100.00
36354;BME280;22383;51.114;13.666;2023-02-21T03:07:54;68040.09;;;7.71;100.00
36354;BME280;22383;51.114;13.666;2023-02-21T03:16:01;68047.81;;;7.76;100.00
36354;BME280;22383;51.114;13.666;2023-02-21T03:21:30;68040.84;;;7.74;100.00
36354;BME280;22383;51.114;13.666;2023-02-21T03:24:04;68043.13;;;7.76;100.00
36354;BME280;22383;51.114;13.666;2023-02-21T03:26:36;68037.47;;;7.71;100.00
36354;BME280;22383;51.114;13.666;2023-02-21T03:29:24;68043.31;;;7.72;100.00
36354;BME280;22383;51.114;13.666;2023-02-21T03:32:19;68052.16;;;7.78;100.00
36354;BME280;22383;51.114;13.666;2023-02-21T03:34:45;68043.69;;;7.77;100.00
36354;BME280;22383;51.114;13.666;2023-02-21T03:37:36;68051.59;;;7.77;100.00
36354;BME280;22383;51.114;13.666;2023-02-21T03:40:16;68053.09;;;7.83;100.00
36354;BME280;22383;51.114;13.666;2023-02-21T03:42:52;68046.72;;;7.82;100.00
36354;BME280;22383;51.114;13.666;2023-02-21T03:45:20;68056.50;;;7.86;100.00
36354;BME280;22383;51.114;13.666;2023-02-21T03:48:10;68053.69;;;7.84;100.00
36354;BME280;22383;51.114;13.666;2023-02-21T03:50:42;68055.94;;;7.86;100.00
36354;BME280;22383;51.114;13.666;2023-02-21T03:53:10;68056.50;;;7.86;100.00
36354;BME280;22383;51.114;13.666;2023-02-21T03:55:41;68052.53;;;7.83;100.00
36354;BME280;22383;51.114;13.666;2023-02-21T03:58:16;68054.03;;;7.82;100.00
36354;BME280;22383;51.114;13.666;2023-02-21T04:00:48;68047.84;;;7.83;100.00
36354;BME280;22383;51.114;13.666;2023-02-21T04:03:17;68047.28;;;7.83;100.00
36354;BME280;22383;51.114;13.666;2023-02-21T04:05:59;68050.28;;;7.81;100.00
36354;BME280;22383;51.114;13.666;2023-02-21T04:08:27;68059.50;;;7.84;100.00
36354;BME280;22383;51.114;13.666;2023-02-21T04:11:07;68052.53;;;7.83;100.00
36354;BME280;22383;51.114;13.666;2023-02-21T04:13:41;68061.59;;;7.84;100.00
36354;BME280;22383;51.114;13.666;2023-02-21T04:16:08;68052.53;;;7.83;100.00
36354;BME280;22383;51.114;13.666;2023-02-21T04:18:35;68059.50;;;7.84;100.00
36354;BME280;22383;51.114;13.666;2023-02-21T04:21:05;68051.59;;;7.84;100.00
36354;BME280;22383;51.114;13.666;2023-02-21T04:23:33;68055.19;;;7.83;100.00
36354;BME280;22383;51.114;13.666;2023-02-21T04:26:02;68056.31;;;7.84;100.00
36354;BME280;22383;51.114;13.666;2023-02-21T04:28:39;68052.53;;;7.83;100.00
36354;BME280;22383;51.114;13.666;2023-02-21T04:31:07;68053.69;;;7.84;100.00
36354;BME280;22383;51.114;13.666;2023-02-21T04:33:36;68053.84;;;7.79;100.00
36354;BME280;22383;51.114;13.666;2023-02-21T04:36:03;68046.88;;;7.78;100.00
36354;BME280;22383;51.114;13.666;2023-02-21T04:38:35;68039.34;;;7.75;100.00
36354;BME280;22383;51.114;13.666;2023-02-21T04:41:04;68060.84;;;7.88;100.00
36354;BME280;22383;51.114;13.666;2023-02-21T04:43:32;68053.09;;;7.83;100.00
36354;BME280;22383;51.114;13.666;2023-02-21T04:45:59;68053.69;;;7.84;100.00
36354;BME280;22383;51.114;13.666;2023-02-21T04:48:30;68055.75;;;7.83;100.00
36354;BME280;22383;51.114;13.666;2023-02-21T04:50:58;68058.19;;;7.88;100.00
36354;BME280;22383;51.114;13.666;2023-02-21T04:53:40;68054.44;;;7.87;100.00
36354;BME280;22383;51.114;13.666;2023-02-21T04:56:10;68053.69;;;7.84;100.00
36354;BME280;22383;51.114;13.666;2023-02-21T04:58:41;68058.00;;;7.85;100.00
36354;BME280;22383;51.114;13.666;2023-02-21T05:01:14;68048.22;;;7.81;100.00
36354;BME280;22383;51.114;13.666;2023-02-21T05:03:42;68055.75;;;7.83;100.00
36354;BME280;22383;51.114;13.666;2023-02-21T05:06:16;68051.41;;;7.82;100.00
36354;BME280;22383;51.114;13.666;2023-02-21T05:08:43;68051.97;;;7.82;100.00
36354;BME280;22383;51.114;13.666;2023-02-21T05:11:10;68052.91;;;7.81;100.00
36354;BME280;22383;51.114;13.666;2023-02-21T05:13:38;68051.22;;;7.79;100.00
36354;BME280;22383;51.114;13.666;2023-02-21T05:16:06;68056.88;;;7.84;100.00
36354;BME280;22383;51.114;13.666;2023-02-21T05:18:35;68050.47;;;7.83;100.00
36354;BME280;22383;51.114;13.666;2023-02-21T05:21:07;68051.97;;;7.82;100.00
36354;BME280;22383;51.114;13.666;2023-02-21T05:23:34;68051.97;;;7.82;100.00
36354;BME280;22383;51.114;13.666;2023-02-21T05:26:06;68051.41;;;7.82;100.00
36354;BME280;22383;51.114;13.666;2023-02-21T05:28:35;68053.09;;;7.83;100.00
36354;BME280;22383;51.114;13.666;2023-02-21T05:31:06;68055.38;;;7.85;100.00
36354;BME280;22383;51.114;13.666;2023-02-21T05:33:33;68055.94;;;7.86;100.00
36354;BME280;22383;51.114;13.666;2023-02-21T05:36:01;68057.66;;;7.87;100.00
36354;BME280;22383;51.114;13.666;2023-02-21T05:38:28;68061.97;;;7.89;100.00
36354;BME280;22383;51.114;13.666;2023-02-21T05:40:55;68066.13;;;7.95;100.00
36354;BME280;22383;51.114;13.666;2023-02-21T05:43:26;68070.84;;;7.94;100.00
36354;BME280;22383;51.114;13.666;2023-02-21T05:45:55;68070.25;;;7.94;100.00
36354;BME280;22383;51.114;13.666;2023-02-21T05:48:24;68063.88;;;7.93;100.00
36354;BME280;22383;51.114;13.666;2023-02-21T05:50:56;68065.34;;;7.92;100.00
36354;BME280;22383;51.114;13.666;2023-02-21T05:53:23;68060.47;;;7.90;100.00
36354;BME280;22383;51.114;13.666;2023-02-21T05:55:50;68056.31;;;7.84;100.00
36354;BME280;22383;51.114;13.666;2023-02-21T05:58:20;68060.28;;;7.87;100.00
36354;BME280;22383;51.114;13.666;2023-02-21T06:00:56;68059.34;;;7.89;100.00
36354;BME280;22383;51.114;13.666;2023-02-21T06:03:23;68054.63;;;7.89;100.00
36354;BME280;22383;51.114;13.666;2023-02-21T06:05:51;68058.19;;;7.88;100.00
36354;BME280;22383;51.114;13.666;2023-02-21T06:08:18;68053.88;;;7.86;100.00
36354;BME280;22383;51.114;13.666;2023-02-21T06:10:47;68057.06;;;7.87;100.00
36354;BME280;22383;51.114;13.666;2023-02-21T06:13:14;68064.25;;;7.91;100.00
36354;BME280;22383;51.114;13.666;2023-02-21T06:15:44;68060.47;;;7.90;100.00
36354;BME280;22383;51.114;13.666;2023-02-21T06:18:16;68060.47;;;7.90;100.00
36354;BME280;22383;51.114;13.666;2023-02-21T06:20:46;68056.13;;;7.88;100.00
36354;BME280;22383;51.114;13.666;2023-02-21T06:23:17;68063.09;;;7.90;100.00
36354;BME280;22383;51.114;13.666;2023-02-21T06:25:45;68064.97;;;7.94;100.00
36354;BME280;22383;51.114;13.666;2023-02-21T06:28:15;68062.34;;;7.94;100.00
36354;BME280;22383;51.114;13.666;2023-02-21T06:30:43;68067.06;;;7.93;100.00
36354;BME280;22383;51.114;13.666;2023-02-21T06:33:14;68064.41;;;7.93;100.00
36354;BME280;22383;51.114;13.666;2023-02-21T06:35:42;68066.69;;;7.95;100.00
36354;BME280;22383;51.114;13.666;2023-02-21T06:38:12;68061.78;;;7.93;100.00
36354;BME280;22383;51.114;13.666;2023-02-21T06:40:41;68060.84;;;7.95;100.00
36354;BME280;22383;51.114;13.666;2023-02-21T06:43:11;68064.41;;;7.93;100.00
36354;BME280;22383;51.114;13.666;2023-02-21T06:45:38;68040.72;;;7.93;100.00
36354;BME280;22383;51.114;13.666;2023-02-21T06:48:07;68067.25;;;7.96;100.00
36354;BME280;22383;51.114;13.666;2023-02-21T06:50:38;68067.63;;;7.94;100.00
36354;BME280;22383;51.114;13.666;2023-02-21T06:53:09;68061.78;;;7.93;100.00
36354;BME280;22383;51.114;13.666;2023-02-21T06:55:41;68062.94;;;7.94;100.00
36354;BME280;22383;51.114;13.666;2023-02-21T06:58:21;68059.53;;;7.91;100.00
36354;BME280;22383;51.114;13.666;2023-02-21T07:00:48;68064.97;;;7.94;100.00
36354;BME280;22383;51.114;13.666;2023-02-21T07:03:16;68069.31;;;7.95;100.00
36354;BME280;22383;51.114;13.666;2023-02-21T07:05:43;68062.72;;;7.92;100.00
36354;BME280;22383;51.114;13.666;2023-02-21T07:08:11;68065.34;;;7.92;100.00
36354;BME280;22383;51.114;13.666;2023-02-21T07:10:43;68063.88;;;7.93;100.00
36354;BME280;22383;51.114;13.666;2023-02-21T07:13:20;68064.78;;;7.91;100.00
36354;BME280;22383;51.114;13.666;2023-02-21T07:15:50;68072.53;;;7.96;100.00
36354;BME280;22383;51.114;13.666;2023-02-21T07:18:17;68066.31;;;7.98;100.00
36354;BME280;22383;51.114;13.666;2023-02-21T07:20:47;68068.38;;;7.97;100.00
36354;BME280;22383;51.114;13.666;2023-02-21T07:23:18;68069.31;;;7.95;100.00
36354;BME280;22383;51.114;13.666;2023-02-21T07:25:50;68065.38;;;7.99;100.00
36354;BME280;22383;51.114;13.666;2023-02-21T07:28:17;68073.28;;;7.99;100.00
36354;BME280;22383;51.114;13.666;2023-02-21T07:30:48;68071.56;;;7.98;100.00
36354;BME280;22383;51.114;13.666;2023-02-21T07:33:18;68060.66;;;7.92;100.00
36354;BME280;22383;51.114;13.666;2023-02-21T07:35:45;68064.97;;;7.94;100.00
36354;BME280;22383;51.114;13.666;2023-02-21T07:38:25;68062.72;;;7.92;100.00
36354;BME280;22383;51.114;13.666;2023-02-21T07:40:58;68067.06;;;7.93;100.00
36354;BME280;22383;51.114;13.666;2023-02-21T07:43:29;68065.34;;;7.92;100.00
36354;BME280;22383;51.114;13.666;2023-02-21T07:45:58;68063.88;;;7.93;100.00
36354;BME280;22383;51.114;13.666;2023-02-21T07:48:33;68068.19;;;7.94;100.00
36354;BME280;22383;51.114;13.666;2023-02-21T07:51:05;68068.38;;;7.97;100.00
36354;BME280;22383;51.114;13.666;2023-02-21T07:53:33;68072.53;;;7.96;100.00
36354;BME280;22383;51.114;13.666;2023-02-21T07:56:02;68064.41;;;7.93;100.00
36354;BME280;22383;51.114;13.666;2023-02-21T07:58:32;68066.50;;;7.93;100.00
36354;BME280;22383;51.114;13.666;2023-02-21T08:01:04;68061.78;;;7.93;100.00
36354;BME280;22383;51.114;13.666;2023-02-21T08:03:32;68065.56;;;7.94;100.00
36354;BME280;22383;51.114;13.666;2023-02-21T08:06:08;68066.13;;;7.95;100.00
36354;BME280;22383;51.114;13.666;2023-02-21T08:08:38;68069.31;;;7.95;100.00
36354;BME280;22383;51.114;13.666;2023-02-21T08:11:06;68067.25;;;7.96;100.00
36354;BME280;22383;51.114;13.666;2023-02-21T08:13:33;68066.13;;;7.95;100.00
36354;BME280;22383;51.114;13.666;2023-02-21T08:16:04;68065.34;;;7.92;100.00
36354;BME280;22383;51.114;13.666;2023-02-21T08:18:33;68062.94;;;7.94;100.00
36354;BME280;22383;51.114;13.666;2023-02-21T08:21:00;68060.09;;;7.92;100.00
36354;BME280;22383;51.114;13.666;2023-02-21T08:23:35;68063.66;;;7.90;100.00
36354;BME280;22383;51.114;13.666;2023-02-21T08:26:12;68062.72;;;7.92;100.00
36354;BME280;22383;51.114;13.666;2023-02-21T08:28:40;68062.94;;;7.94;100.00
36354;BME280;22383;51.114;13.666;2023-02-21T08:31:12;68068.19;;;7.94;100.00
36354;BME280;22383;51.114;13.666;2023-02-21T08:33:43;68067.25;;;7.96;100.00
36354;BME280;22383;51.114;13.666;2023-02-21T08:36:11;68066.13;;;7.95;100.00
36354;BME280;22383;51.114;13.666;2023-02-21T08:38:39;68067.63;;;7.94;100.00
36354;BME280;22383;51.114;13.666;2023-02-21T08:41:09;68067.25;;;7.96;100.00
36354;BME280;22383;51.114;13.666;2023-02-21T08:43:37;68067.63;;;7.94;100.00
36354;BME280;22383;51.114;13.666;2023-02-21T08:46:07;68064.03;;;7.95;100.00
36354;BME280;22383;51.114;13.666;2023-02-21T08:48:35;68068.38;;;7.97;100.00
36354;BME280;22383;51.114;13.666;2023-02-21T08:51:09;68067.44;;;7.99;100.00
36354;BME280;22383;51.114;13.666;2023-02-21T08:53:39;68071.97;;;8.03;100.00
36354;BME280;22383;51.114;13.666;2023-02-21T08:56:06;68075.91;;;8.06;100.00
36354;BME280;22383;51.114;13.666;2023-02-21T08:58:41;68080.84;;;8.08;100.00
36354;BME280;22383;51.114;13.666;2023-02-21T09:01:10;68083.88;;;8.13;100.00
36354;BME280;22383;51.114;13.666;2023-02-21T09:03:41;68091.56;;;8.18;100.00
36354;BME280;22383;51.114;13.666;2023-02-21T09:06:14;68098.94;;;8.25;100.00
36354;BME280;22383;51.114;13.666;2023-02-21T09:08:48;68105.75;;;8.31;100.00
36354;BME280;22383;51.114;13.666;2023-02-21T09:11:15;68108.56;;;8.33;100.00
36354;BME280;22383;51.114;13.666;2023-02-21T09:13:43;68110.25;;;8.35;100.00
36354;BME280;22383;51.114;13.666;2023-02-21T09:16:18;68106.28;;;8.31;100.00
36354;BME280;22383;51.114;13.666;2023-02-21T09:19:18;68116.84;;;8.39;100.00
36354;BME280;22383;51.114;13.666;2023-02-21T09:21:50;68116.47;;;8.41;100.00
36354;BME280;22383;51.114;13.666;2023-02-21T09:24:22;68124.25;;;8.45;100.00
36354;BME280;22383;51.114;13.666;2023-02-21T09:26:58;68124.97;;;8.48;100.00
36354;BME280;22383;51.114;13.666;2023-02-21T09:29:33;68121.22;;;8.47;100.00
36354;BME280;22383;51.114;13.666;2023-02-21T09:32:13;68126.13;;;8.49;100.00
36354;BME280;22383;51.114;13.666;2023-02-21T09:34:40;68128.38;;;8.51;100.00
36354;BME280;22383;51.114;13.666;2023-02-21T09:37:07;68131.97;;;8.57;100.00
36354;BME280;22383;51.114;13.666;2023-02-21T09:39:46;68129.72;;;8.55;100.00
36354;BME280;22383;51.114;13.666;2023-02-21T09:42:16;68131.78;;;8.55;100.00
36354;BME280;22383;51.114;13.666;2023-02-21T09:44:45;68130.09;;;8.53;100.00
36354;BME280;22383;51.114;13.666;2023-02-21T09:47:18;68125.19;;;8.51;100.00
36354;BME280;22383;51.114;13.666;2023-02-21T09:50:04;68127.25;;;8.50;100.00
36354;BME280;22383;51.114;13.666;2023-02-21T09:52:37;68133.84;;;8.54;100.00
36354;BME280;22383;51.114;13.666;2023-02-21T09:55:26;68139.69;;;8.62;100.00
36354;BME280;22383;51.114;13.666;2023-02-21T09:58:01;68144.44;;;8.68;100.00
36354;BME280;22383;51.114;13.666;2023-02-21T10:00:37;68160.81;;;8.76;100.00
36354;BME280;22383;51.114;13.666;2023-02-21T10:03:30;68162.91;;;8.83;100.00
36354;BME280;22383;51.114;13.666;2023-02-21T10:09:16;68160.44;;;8.78;100.00
36354;BME280;22383;51.114;13.666;2023-02-21T10:12:00;68162.34;;;8.82;100.00
36354;BME280;22383;51.114;13.666;2023-02-21T10:17:50;68160.28;;;8.83;100.00
36354;BME280;22383;51.114;13.666;2023-02-21T10:20:26;68165.19;;;8.85;100.00
36354;BME280;22383;51.114;13.666;2023-02-21T10:23:18;68165.00;;;8.82;100.00
36354;BME280;22383;51.114;13.666;2023-02-21T10:25:56;68168.19;;;8.83;100.00
36354;BME280;22383;51.114;13.666;2023-02-21T10:28:25;68166.31;;;8.86;100.00
36354;BME280;22383;51.114;13.666;2023-02-21T10:31:11;68178.56;;;8.95;100.00
36354;BME280;22383;51.114;13.666;2023-02-21T10:33:40;68179.53;;;9.00;100.00
36354;BME280;22383;51.114;13.666;2023-02-21T10:36:31;68184.81;;;9.00;100.00
36354;BME280;22383;51.114;13.666;2023-02-21T10:39:14;68186.31;;;8.99;100.00
36354;BME280;22383;51.114;13.666;2023-02-21T10:41:43;68185.75;;;8.99;100.00
36354;BME280;22383;51.114;13.666;2023-02-21T10:44:32;68175.56;;;8.97;100.00
36354;BME280;22383;51.114;13.666;2023-02-21T10:47:07;68174.81;;;8.94;100.00
36354;BME280;22383;51.114;13.666;2023-02-21T10:49:58;68177.25;;;8.98;100.00
36354;BME280;22383;51.114;13.666;2023-02-21T10:52:27;68179.91;;;8.98;100.00
36354;BME280;22383;51.114;13.666;2023-02-21T10:55:03;68179.34;;;8.98;100.00
36354;BME280;22383;51.114;13.666;2023-02-21T10:57:38;68179.34;;;8.98;100.00
36354;BME280;22383;51.114;13.666;2023-02-21T11:00:39;68181.41;;;8.97;100.00
36354;BME280;22383;51.114;13.666;2023-02-21T11:03:23;68180.47;;;8.99;100.00
36354;BME280;22383;51.114;13.666;2023-02-21T11:05:57;68183.66;;;8.99;100.00
36354;BME280;22383;51.114;13.666;2023-02-21T11:08:37;68178.19;;;8.97;100.00
36354;BME280;22383;51.114;13.666;2023-02-21T11:11:08;68181.41;;;8.97;100.00
36354;BME280;22383;51.114;13.666;2023-02-21T11:13:37;68175.94;;;8.95;100.00
36354;BME280;22383;51.114;13.666;2023-02-21T11:16:15;68174.63;;;8.91;100.00
36354;BME280;22383;51.114;13.666;2023-02-21T11:18:45;68170.28;;;8.89;100.00
36354;BME280;22383;51.114;13.666;2023-02-21T11:21:15;68165.00;;;8.89;100.00
36354;BME280;22383;51.114;13.666;2023-02-21T11:24:03;68176.13;;;8.90;100.00
36354;BME280;22383;51.114;13.666;2023-02-21T11:26:37;68170.47;;;8.92;100.00
36354;BME280;22383;51.114;13.666;2023-02-21T11:29:16;68178.19;;;8.97;100.00
36354;BME280;22383;51.114;13.666;2023-02-21T11:31:46;68178.97;;;8.93;100.00
36354;BME280;22383;51.114;13.666;2023-02-21T11:34:27;68174.63;;;8.91;100.00
36354;BME280;22383;51.114;13.666;2023-02-21T11:37:01;68170.84;;;8.90;100.00
36354;BME280;22383;51.114;13.666;2023-02-21T11:39:35;68169.13;;;8.88;100.00
36354;BME280;22383;51.114;13.666;2023-02-21T11:42:04;68169.34;;;8.91;100.00
36354;BME280;22383;51.114;13.666;2023-02-21T11:44:50;68179.69;;;8.96;100.00
36354;BME280;22383;51.114;13.666;2023-02-21T11:47:42;68184.44;;;9.02;100.00
36354;BME280;22383;51.114;13.666;2023-02-21T11:50:37;68182.16;;;9.00;100.00
36354;BME280;22383;51.114;13.666;2023-02-21T11:53:24;68147.09;;;8.90;100.00
36354;BME280;22383;51.114;13.666;2023-02-21T12:01:48;68157.06;;;8.82;100.00
36354;BME280;22383;51.114;13.666;2023-02-21T12:04:51;68156.69;;;8.77;100.00
36354;BME280;22383;51.114;13.666;2023-02-21T12:10:34;68155.94;;;8.74;100.00
36354;BME280;22383;51.114;13.666;2023-02-21T12:22:03;68171.03;;;8.85;100.00
36354;BME280;22383;51.114;13.666;2023-02-21T12:33:18;68177.06;;;8.96;100.00
36354;BME280;22383;51.114;13.666;2023-02-21T12:41:47;68180.84;;;8.97;100.00
36354;BME280;22383;51.114;13.666;2023-02-21T12:52:26;68201.25;;;9.15;100.00
36354;BME280;22383;51.114;13.666;2023-02-21T12:55:02;68197.44;;;9.14;100.00
36354;BME280;22383;51.114;13.666;2023-02-21T12:57:48;68211.97;;;9.25;100.00
36354;BME280;22383;51.114;13.666;2023-02-21T13:00:26;68223.31;;;9.35;100.00
36354;BME280;22383;51.114;13.666;2023-02-21T13:05:40;68233.13;;;9.46;100.00
36354;BME280;22383;51.114;13.666;2023-02-21T13:08:18;68222.38;;;9.37;100.00
36354;BME280;22383;51.114;13.666;2023-02-21T13:10:52;68208.03;;;9.21;100.00
36354;BME280;22383;51.114;13.666;2023-02-21T13:13:28;68199.72;;;9.16;100.00
36354;BME280;22383;51.114;13.666;2023-02-21T13:16:04;68198.94;;;9.13;100.00
36354;BME280;22383;51.114;13.666;2023-02-21T13:18:39;68196.91;;;9.14;100.00
36354;BME280;22383;51.114;13.666;2023-02-21T13:29:47;68181.59;;;9.00;100.00
36354;BME280;22383;51.114;13.666;2023-02-21T13:32:21;68180.66;;;9.01;100.00
36354;BME280;22383;51.114;13.666;2023-02-21T13:35:08;68177.63;;;8.96;100.00
36354;BME280;22383;51.114;13.666;2023-02-21T13:37:43;68177.63;;;8.96;100.00
36354;BME280;22383;51.114;13.666;2023-02-21T13:40:22;68177.06;;;8.96;100.00
36354;BME280;22383;51.114;13.666;2023-02-21T13:43:03;68152.19;;;8.95;100.00
36354;BME280;22383;51.114;13.666;2023-02-21T13:45:32;68175.94;;;8.95;100.00
36354;BME280;22383;51.114;13.666;2023-02-21T13:55:36;68174.25;;;8.93;100.00
36354;BME280;22383;51.114;13.666;2023-02-21T14:03:29;68182.94;;;9.03;100.00
36354;BME280;22383;51.114;13.666;2023-02-21T14:08:43;68185.56;;;9.03;100.00
36354;BME280;22383;51.114;13.666;2023-02-21T14:11:25;68187.81;;;9.05;100.00
36354;BME280;22383;51.114;13.666;2023-02-21T14:16:53;68190.47;;;9.05;100.00
36354;BME280;22383;51.114;13.666;2023-02-21T14:19:25;68189.31;;;9.04;100.00
36354;BME280;22383;51.114;13.666;2023-02-21T14:22:29;68187.28;;;9.05;100.00
36354;BME280;22383;51.114;13.666;2023-02-21T14:25:16;68182.72;;;9.01;100.00
36354;BME280;22383;51.114;13.666;2023-02-21T14:27:44;68174.81;;;8.94;100.00
36354;BME280;22383;51.114;13.666;2023-02-21T14:32:43;68172.53;;;8.92;100.00
36354;BME280;22383;51.114;13.666;2023-02-21T14:35:34;68171.78;;;8.88;100.00
36354;BME280;22383;51.114;13.666;2023-02-21T14:38:05;68177.06;;;8.96;100.00
36354;BME280;22383;51.114;13.666;2023-02-21T14:40:54;68184.25;;;9.00;100.00
36354;BME280;22383;51.114;13.666;2023-02-21T14:43:41;68184.44;;;9.02;100.00
36354;BME280;22383;51.114;13.666;2023-02-21T14:46:53;68187.81;;;9.05;100.00
36354;BME280;22383;51.114;13.666;2023-02-21T14:57:59;68179.34;;;8.98;100.00
36354;BME280;22383;51.114;13.666;2023-02-21T15:00:59;68178.19;;;8.97;100.00
36354;BME280;22383;51.114;13.666;2023-02-21T15:04:01;68181.41;;;8.97;100.00
36354;BME280;22383;51.114;13.666;2023-02-21T15:06:30;68180.28;;;8.96;100.00
36354;BME280;22383;51.114;13.666;2023-02-21T15:09:11;68177.81;;;8.99;100.00
36354;BME280;22383;51.114;13.666;2023-02-21T15:11:39;68175.38;;;8.94;100.00
36354;BME280;22383;51.114;13.666;2023-02-21T15:14:23;68178.19;;;8.97;100.00
36354;BME280;22383;51.114;13.666;2023-02-21T15:17:10;68175.00;;;8.96;100.00
36354;BME280;22383;51.114;13.666;2023-02-21T15:19:41;68183.09;;;8.99;100.00
36354;BME280;22383;51.114;13.666;2023-02-21T15:22:16;68178.38;;;8.99;100.00
36354;BME280;22383;51.114;13.666;2023-02-21T15:27:37;68180.28;;;8.96;100.00
36354;BME280;22383;51.114;13.666;2023-02-21T15:30:12;68175.94;;;8.95;100.00
36354;BME280;22383;51.114;13.666;2023-02-21T15:32:39;68170.84;;;8.90;100.00
36354;BME280;22383;51.114;13.666;2023-02-21T15:35:23;68178.97;;;8.93;100.00
36354;BME280;22383;51.114;13.666;2023-02-21T15:37:52;68171.03;;;8.93;100.00